sensor_id;sensor_type;location;lat;lon;timestamp;temperature;humidity
62589;DHT22;58504;48.770;9.148;2022-12-13T00:01:18;19.10;50.40
62589;DHT22;58504;48.770;9.148;2022-12-13T00:03:45;19.10;50.60
62589;DHT22;58504;48.770;9.148;2022-12-13T00:06:12;19.00;50.70
62589;DHT22;58504;48.770;9.148;2022-12-13T00:08:39;19.00;50.90
62589;DHT22;58504;48.770;9.148;2022-12-13T00:11:10;18.90;50.80
62589;DHT22;58504;48.770;9.148;2022-12-13T00:13:40;18.90;51.10
62589;DHT22;58504;48.770;9.148;2022-12-13T00:16:10;18.80;51.20
62589;DHT22;58504;48.770;9.148;2022-12-13T00:18:38;18.80;51.30
62589;DHT22;58504;48.770;9.148;2022-12-13T00:21:05;18.80;51.40
62589;DHT22;58504;48.770;9.148;2022-12-13T00:23:32;18.70;51.40
62589;DHT22;58504;48.770;9.148;2022-12-13T00:26:02;18.60;51.50
62589;DHT22;58504;48.770;9.148;2022-12-13T00:28:28;18.60;51.70
62589;DHT22;58504;48.770;9.148;2022-12-13T00:30:57;18.60;51.80
62589;DHT22;58504;48.770;9.148;2022-12-13T00:33:24;18.50;51.70
62589;DHT22;58504;48.770;9.148;2022-12-13T00:35:50;18.50;51.90
62589;DHT22;58504;48.770;9.148;2022-12-13T00:38:18;18.50;52.10
62589;DHT22;58504;48.770;9.148;2022-12-13T00:40:44;18.40;52.10
62589;DHT22;58504;48.770;9.148;2022-12-13T00:43:11;18.40;52.00
62589;DHT22;58504;48.770;9.148;2022-12-13T00:45:38;18.30;52.10
62589;DHT22;58504;48.770;9.148;2022-12-13T00:48:07;18.30;52.30
62589;DHT22;58504;48.770;9.148;2022-12-13T00:50:33;18.30;52.30
62589;DHT22;58504;48.770;9.148;2022-12-13T00:53:00;18.30;52.40
62589;DHT22;58504;48.770;9.148;2022-12-13T00:55:27;18.20;52.30
62589;DHT22;58504;48.770;9.148;2022-12-13T00:57:54;18.20;52.60
62589;DHT22;58504;48.770;9.148;2022-12-13T01:00:21;18.20;52.60
62589;DHT22;58504;48.770;9.148;2022-12-13T01:02:50;18.10;52.40
62589;DHT22;58504;48.770;9.148;2022-12-13T01:05:19;18.10;52.60
62589;DHT22;58504;48.770;9.148;2022-12-13T01:07:46;18.10;52.60
62589;DHT22;58504;48.770;9.148;2022-12-13T01:10:13;18.10;52.70
62589;DHT22;58504;48.770;9.148;2022-12-13T01:12:40;18.00;52.60
62589;DHT22;58504;48.770;9.148;2022-12-13T01:15:07;18.00;52.70
62589;DHT22;58504;48.770;9.148;2022-12-13T01:17:35;18.00;52.80
62589;DHT22;58504;48.770;9.148;2022-12-13T01:20:02;18.00;52.70
62589;DHT22;58504;48.770;9.148;2022-12-13T01:22:32;18.00;52.70
62589;DHT22;58504;48.770;9.148;2022-12-13T01:24:58;18.00;52.80
62589;DHT22;58504;48.770;9.148;2022-12-13T01:27:25;18.00;52.90
62589;DHT22;58504;48.770;9.148;2022-12-13T01:29:52;18.00;52.90
62589;DHT22;58504;48.770;9.148;2022-12-13T01:32:18;18.00;53.00
62589;DHT22;58504;48.770;9.148;2022-12-13T01:34:45;17.90;52.80
62589;DHT22;58504;48.770;9.148;2022-12-13T01:37:12;17.90;52.80
62589;DHT22;58504;48.770;9.148;2022-12-13T01:39:40;17.90;52.80
62589;DHT22;58504;48.770;9.148;2022-12-13T01:42:13;17.90;52.90
62589;DHT22;58504;48.770;9.148;2022-12-13T01:45:20;17.90;52.80
62589;DHT22;58504;48.770;9.148;2022-12-13T01:47:50;17.80;52.80
62589;DHT22;58504;48.770;9.148;2022-12-13T01:50:22;17.80;52.90
62589;DHT22;58504;48.770;9.148;2022-12-13T01:52:51;17.80;53.00
62589;DHT22;58504;48.770;9.148;2022-12-13T01:55:21;17.80;52.90
62589;DHT22;58504;48.770;9.148;2022-12-13T01:57:50;17.70;52.80
62589;DHT22;58504;48.770;9.148;2022-12-13T02:00:17;17.70;52.90
62589;DHT22;58504;48.770;9.148;2022-12-13T02:02:46;17.70;52.90
62589;DHT22;58504;48.770;9.148;2022-12-13T02:05:20;17.70;52.90
62589;DHT22;58504;48.770;9.148;2022-12-13T02:07:49;17.70;52.90
62589;DHT22;58504;48.770;9.148;2022-12-13T02:10:17;17.60;52.90
62589;DHT22;58504;48.770;9.148;2022-12-13T02:12:45;17.60;52.90
62589;DHT22;58504;48.770;9.148;2022-12-13T02:15:13;17.60;52.90
62589;DHT22;58504;48.770;9.148;2022-12-13T02:17:55;17.60;52.90
62589;DHT22;58504;48.770;9.148;2022-12-13T02:20:48;17.60;53.00
62589;DHT22;58504;48.770;9.148;2022-12-13T02:32:33;17.50;53.10
62589;DHT22;58504;48.770;9.148;2022-12-13T02:35:06;17.50;53.20
62589;DHT22;58504;48.770;9.148;2022-12-13T02:37:45;17.50;53.20
62589;DHT22;58504;48.770;9.148;2022-12-13T02:40:20;17.50;53.10
62589;DHT22;58504;48.770;9.148;2022-12-13T02:42:51;17.40;53.20
62589;DHT22;58504;48.770;9.148;2022-12-13T02:45:24;17.40;53.20
62589;DHT22;58504;48.770;9.148;2022-12-13T02:47:57;17.40;53.20
62589;DHT22;58504;48.770;9.148;2022-12-13T02:50:26;17.40;53.30
62589;DHT22;58504;48.770;9.148;2022-12-13T02:52:54;17.30;53.20
62589;DHT22;58504;48.770;9.148;2022-12-13T02:55:21;17.30;53.20
62589;DHT22;58504;48.770;9.148;2022-12-13T02:57:48;17.30;53.30
62589;DHT22;58504;48.770;9.148;2022-12-13T03:00:18;17.30;53.30
62589;DHT22;58504;48.770;9.148;2022-12-13T03:02:56;17.30;53.40
62589;DHT22;58504;48.770;9.148;2022-12-13T03:05:32;17.30;53.40
62589;DHT22;58504;48.770;9.148;2022-12-13T03:08:21;17.30;53.50
62589;DHT22;58504;48.770;9.148;2022-12-13T03:10:55;17.20;53.40
62589;DHT22;58504;48.770;9.148;2022-12-13T03:13:27;17.20;53.50
62589;DHT22;58504;48.770;9.148;2022-12-13T03:16:26;17.20;53.50
62589;DHT22;58504;48.770;9.148;2022-12-13T03:18:57;17.20;53.40
62589;DHT22;58504;48.770;9.148;2022-12-13T03:21:25;17.20;53.50
62589;DHT22;58504;48.770;9.148;2022-12-13T03:23:52;17.20;53.60
62589;DHT22;58504;48.770;9.148;2022-12-13T03:26:21;17.10;53.40
62589;DHT22;58504;48.770;9.148;2022-12-13T03:28:49;17.10;54.00
62589;DHT22;58504;48.770;9.148;2022-12-13T03:31:16;17.10;53.50
62589;DHT22;58504;48.770;9.148;2022-12-13T03:33:44;17.10;53.50
62589;DHT22;58504;48.770;9.148;2022-12-13T03:36:12;17.10;53.50
62589;DHT22;58504;48.770;9.148;2022-12-13T03:38:39;17.10;53.60
62589;DHT22;58504;48.770;9.148;2022-12-13T03:41:10;17.10;53.60
62589;DHT22;58504;48.770;9.148;2022-12-13T03:43:38;17.10;53.60
62589;DHT22;58504;48.770;9.148;2022-12-13T03:46:05;17.00;54.00
62589;DHT22;58504;48.770;9.148;2022-12-13T03:48:32;17.00;53.60
62589;DHT22;58504;48.770;9.148;2022-12-13T03:50:59;17.00;53.60
62589;DHT22;58504;48.770;9.148;2022-12-13T03:53:29;17.00;53.50
62589;DHT22;58504;48.770;9.148;2022-12-13T03:55:56;17.00;53.60
62589;DHT22;58504;48.770;9.148;2022-12-13T03:58:22;17.00;53.60
62589;DHT22;58504;48.770;9.148;2022-12-13T04:00:49;17.00;53.60
62589;DHT22;58504;48.770;9.148;2022-12-13T04:03:16;17.00;53.70
62589;DHT22;58504;48.770;9.148;2022-12-13T04:05:43;16.90;53.60
62589;DHT22;58504;48.770;9.148;2022-12-13T04:08:10;16.90;53.60
62589;DHT22;58504;48.770;9.148;2022-12-13T04:10:38;16.90;53.60
62589;DHT22;58504;48.770;9.148;2022-12-13T04:13:05;17.00;53.70
62589;DHT22;58504;48.770;9.148;2022-12-13T04:15:49;16.90;53.60
62589;DHT22;58504;48.770;9.148;2022-12-13T04:18:17;16.90;53.70
62589;DHT22;58504;48.770;9.148;2022-12-13T04:20:45;16.90;53.60
62589;DHT22;58504;48.770;9.148;2022-12-13T04:23:12;16.90;53.70
62589;DHT22;58504;48.770;9.148;2022-12-13T04:25:41;16.90;53.70
62589;DHT22;58504;48.770;9.148;2022-12-13T04:28:08;16.80;53.60
62589;DHT22;58504;48.770;9.148;2022-12-13T04:30:35;16.80;53.60
62589;DHT22;58504;48.770;9.148;2022-12-13T04:33:02;16.90;53.70
62589;DHT22;58504;48.770;9.148;2022-12-13T04:35:29;17.10;53.50
62589;DHT22;58504;48.770;9.148;2022-12-13T04:37:56;17.30;53.20
62589;DHT22;58504;48.770;9.148;2022-12-13T04:40:23;17.60;52.70
62589;DHT22;58504;48.770;9.148;2022-12-13T04:42:51;17.90;52.10
62589;DHT22;58504;48.770;9.148;2022-12-13T04:45:20;18.20;51.50
62589;DHT22;58504;48.770;9.148;2022-12-13T04:47:47;18.50;51.00
62589;DHT22;58504;48.770;9.148;2022-12-13T04:50:13;18.70;50.40
62589;DHT22;58504;48.770;9.148;2022-12-13T04:52:40;18.80;50.10
62589;DHT22;58504;48.770;9.148;2022-12-13T04:55:08;18.90;49.80
62589;DHT22;58504;48.770;9.148;2022-12-13T04:57:34;19.00;49.60
62589;DHT22;58504;48.770;9.148;2022-12-13T05:00:03;19.10;49.30
62589;DHT22;58504;48.770;9.148;2022-12-13T05:02:30;19.30;49.20
62589;DHT22;58504;48.770;9.148;2022-12-13T05:04:56;19.40;48.90
62589;DHT22;58504;48.770;9.148;2022-12-13T05:07:25;19.60;48.50
62589;DHT22;58504;48.770;9.148;2022-12-13T05:09:52;19.80;48.80
62589;DHT22;58504;48.770;9.148;2022-12-13T05:12:18;19.90;48.00
62589;DHT22;58504;48.770;9.148;2022-12-13T05:14:45;19.90;47.80
62589;DHT22;58504;48.770;9.148;2022-12-13T05:17:13;20.00;47.70
62589;DHT22;58504;48.770;9.148;2022-12-13T05:19:41;20.10;47.60
62589;DHT22;58504;48.770;9.148;2022-12-13T05:22:08;20.10;47.50
62589;DHT22;58504;48.770;9.148;2022-12-13T05:24:40;20.20;47.40
62589;DHT22;58504;48.770;9.148;2022-12-13T05:27:08;20.30;47.30
62589;DHT22;58504;48.770;9.148;2022-12-13T05:29:34;20.30;47.20
62589;DHT22;58504;48.770;9.148;2022-12-13T05:32:01;20.40;47.00
62589;DHT22;58504;48.770;9.148;2022-12-13T05:34:30;20.40;46.90
62589;DHT22;58504;48.770;9.148;2022-12-13T05:36:56;20.50;46.80
62589;DHT22;58504;48.770;9.148;2022-12-13T05:39:23;20.50;46.80
62589;DHT22;58504;48.770;9.148;2022-12-13T05:41:50;20.60;46.70
62589;DHT22;58504;48.770;9.148;2022-12-13T05:44:17;20.60;46.60
62589;DHT22;58504;48.770;9.148;2022-12-13T05:46:44;20.60;46.50
62589;DHT22;58504;48.770;9.148;2022-12-13T05:49:10;20.60;46.40
62589;DHT22;58504;48.770;9.148;2022-12-13T05:51:38;20.60;46.40
62589;DHT22;58504;48.770;9.148;2022-12-13T05:54:05;20.70;46.40
62589;DHT22;58504;48.770;9.148;2022-12-13T05:56:32;20.70;46.30
62589;DHT22;58504;48.770;9.148;2022-12-13T05:58:59;20.80;46.20
62589;DHT22;58504;48.770;9.148;2022-12-13T06:01:26;20.80;46.10
62589;DHT22;58504;48.770;9.148;2022-12-13T06:03:52;20.80;46.10
62589;DHT22;58504;48.770;9.148;2022-12-13T06:06:19;20.80;46.00
62589;DHT22;58504;48.770;9.148;2022-12-13T06:08:47;20.90;46.00
62589;DHT22;58504;48.770;9.148;2022-12-13T06:11:14;20.90;46.00
62589;DHT22;58504;48.770;9.148;2022-12-13T06:13:42;20.90;46.00
62589;DHT22;58504;48.770;9.148;2022-12-13T06:16:09;21.00;46.00
62589;DHT22;58504;48.770;9.148;2022-12-13T06:18:36;20.90;45.80
62589;DHT22;58504;48.770;9.148;2022-12-13T06:21:05;21.00;45.90
62589;DHT22;58504;48.770;9.148;2022-12-13T06:23:33;21.00;45.80
62589;DHT22;58504;48.770;9.148;2022-12-13T06:26:03;21.00;45.80
62589;DHT22;58504;48.770;9.148;2022-12-13T06:28:30;21.00;45.70
62589;DHT22;58504;48.770;9.148;2022-12-13T06:30:58;21.00;45.80
62589;DHT22;58504;48.770;9.148;2022-12-13T06:33:25;21.10;45.80
62589;DHT22;58504;48.770;9.148;2022-12-13T06:35:55;21.10;45.70
62589;DHT22;58504;48.770;9.148;2022-12-13T06:38:22;21.10;45.80
62589;DHT22;58504;48.770;9.148;2022-12-13T06:40:49;21.10;45.70
62589;DHT22;58504;48.770;9.148;2022-12-13T06:43:17;21.10;45.70
62589;DHT22;58504;48.770;9.148;2022-12-13T06:45:44;21.10;45.80
62589;DHT22;58504;48.770;9.148;2022-12-13T06:48:11;21.10;46.50
62589;DHT22;58504;48.770;9.148;2022-12-13T06:50:37;21.10;46.70
62589;DHT22;58504;48.770;9.148;2022-12-13T06:53:04;21.10;46.90
62589;DHT22;58504;48.770;9.148;2022-12-13T06:55:31;21.00;46.90
62589;DHT22;58504;48.770;9.148;2022-12-13T06:57:58;21.00;47.00
62589;DHT22;58504;48.770;9.148;2022-12-13T07:00:26;21.00;47.10
62589;DHT22;58504;48.770;9.148;2022-12-13T07:02:53;21.00;47.10
62589;DHT22;58504;48.770;9.148;2022-12-13T07:05:20;20.90;47.10
62589;DHT22;58504;48.770;9.148;2022-12-13T07:07:47;20.90;47.10
62589;DHT22;58504;48.770;9.148;2022-12-13T07:10:13;20.90;47.20
62589;DHT22;58504;48.770;9.148;2022-12-13T07:12:40;21.00;47.10
62589;DHT22;58504;48.770;9.148;2022-12-13T07:15:08;21.00;47.10
62589;DHT22;58504;48.770;9.148;2022-12-13T07:17:36;21.00;47.20
62589;DHT22;58504;48.770;9.148;2022-12-13T07:20:04;20.90;47.30
62589;DHT22;58504;48.770;9.148;2022-12-13T07:22:33;20.80;47.30
62589;DHT22;58504;48.770;9.148;2022-12-13T07:25:00;20.70;47.50
62589;DHT22;58504;48.770;9.148;2022-12-13T07:27:29;20.60;47.80
62589;DHT22;58504;48.770;9.148;2022-12-13T07:29:56;20.60;48.00
62589;DHT22;58504;48.770;9.148;2022-12-13T07:32:23;20.50;48.10
62589;DHT22;58504;48.770;9.148;2022-12-13T07:34:51;20.50;48.30
62589;DHT22;58504;48.770;9.148;2022-12-13T07:37:18;20.30;48.20
62589;DHT22;58504;48.770;9.148;2022-12-13T07:39:45;20.30;48.40
62589;DHT22;58504;48.770;9.148;2022-12-13T07:42:12;20.20;48.50
62589;DHT22;58504;48.770;9.148;2022-12-13T07:44:39;20.10;48.60
62589;DHT22;58504;48.770;9.148;2022-12-13T07:47:06;20.00;48.70
62589;DHT22;58504;48.770;9.148;2022-12-13T07:49:32;19.90;48.90
62589;DHT22;58504;48.770;9.148;2022-12-13T07:52:01;19.80;49.00
62589;DHT22;58504;48.770;9.148;2022-12-13T07:54:28;19.90;48.90
62589;DHT22;58504;48.770;9.148;2022-12-13T07:56:54;20.10;48.60
62589;DHT22;58504;48.770;9.148;2022-12-13T07:59:21;20.30;48.30
62589;DHT22;58504;48.770;9.148;2022-12-13T08:01:48;20.50;48.10
62589;DHT22;58504;48.770;9.148;2022-12-13T08:04:15;20.60;47.80
62589;DHT22;58504;48.770;9.148;2022-12-13T08:06:41;20.70;47.60
62589;DHT22;58504;48.770;9.148;2022-12-13T08:09:09;20.80;47.50
62589;DHT22;58504;48.770;9.148;2022-12-13T08:11:36;20.90;48.00
62589;DHT22;58504;48.770;9.148;2022-12-13T08:14:04;20.90;47.30
62589;DHT22;58504;48.770;9.148;2022-12-13T08:16:31;20.90;47.20
62589;DHT22;58504;48.770;9.148;2022-12-13T08:18:58;20.90;47.20
62589;DHT22;58504;48.770;9.148;2022-12-13T08:21:25;20.80;47.10
62589;DHT22;58504;48.770;9.148;2022-12-13T08:23:52;20.70;47.00
62589;DHT22;58504;48.770;9.148;2022-12-13T08:26:21;20.70;47.10
62589;DHT22;58504;48.770;9.148;2022-12-13T08:28:48;20.60;47.20
62589;DHT22;58504;48.770;9.148;2022-12-13T08:31:15;20.50;47.30
62589;DHT22;58504;48.770;9.148;2022-12-13T08:33:42;20.50;47.50
62589;DHT22;58504;48.770;9.148;2022-12-13T08:36:13;20.40;47.60
62589;DHT22;58504;48.770;9.148;2022-12-13T08:38:41;20.30;47.70
62589;DHT22;58504;48.770;9.148;2022-12-13T08:41:08;20.30;47.90
62589;DHT22;58504;48.770;9.148;2022-12-13T08:43:36;20.40;47.80
62589;DHT22;58504;48.770;9.148;2022-12-13T08:46:03;20.60;47.60
62589;DHT22;58504;48.770;9.148;2022-12-13T08:48:30;20.80;47.50
62589;DHT22;58504;48.770;9.148;2022-12-13T08:50:59;21.00;47.30
62589;DHT22;58504;48.770;9.148;2022-12-13T08:53:26;21.00;47.70
62589;DHT22;58504;48.770;9.148;2022-12-13T08:55:53;21.10;47.00
62589;DHT22;58504;48.770;9.148;2022-12-13T08:58:19;21.10;47.00
62589;DHT22;58504;48.770;9.148;2022-12-13T09:00:47;21.10;46.90
62589;DHT22;58504;48.770;9.148;2022-12-13T09:03:14;21.00;46.90
62589;DHT22;58504;48.770;9.148;2022-12-13T09:05:41;21.00;47.00
62589;DHT22;58504;48.770;9.148;2022-12-13T09:08:08;20.90;46.90
62589;DHT22;58504;48.770;9.148;2022-12-13T09:10:34;20.80;46.90
62589;DHT22;58504;48.770;9.148;2022-12-13T09:13:01;20.80;47.00
62589;DHT22;58504;48.770;9.148;2022-12-13T09:15:30;20.70;47.10
62589;DHT22;58504;48.770;9.148;2022-12-13T09:17:59;20.60;47.20
62589;DHT22;58504;48.770;9.148;2022-12-13T09:20:25;20.50;47.30
62589;DHT22;58504;48.770;9.148;2022-12-13T09:22:52;20.40;47.40
62589;DHT22;58504;48.770;9.148;2022-12-13T09:25:20;20.40;47.60
62589;DHT22;58504;48.770;9.148;2022-12-13T09:27:46;20.60;47.60
62589;DHT22;58504;48.770;9.148;2022-12-13T09:30:13;20.70;47.40
62589;DHT22;58504;48.770;9.148;2022-12-13T09:32:40;20.90;47.20
62589;DHT22;58504;48.770;9.148;2022-12-13T09:35:09;21.10;47.00
62589;DHT22;58504;48.770;9.148;2022-12-13T09:37:36;21.10;46.80
62589;DHT22;58504;48.770;9.148;2022-12-13T09:40:04;21.20;46.70
62589;DHT22;58504;48.770;9.148;2022-12-13T09:42:32;21.20;46.50
62589;DHT22;58504;48.770;9.148;2022-12-13T09:45:03;21.20;46.50
62589;DHT22;58504;48.770;9.148;2022-12-13T09:47:33;21.20;46.50
62589;DHT22;58504;48.770;9.148;2022-12-13T09:50:05;21.10;46.50
62589;DHT22;58504;48.770;9.148;2022-12-13T09:52:37;21.10;46.60
62589;DHT22;58504;48.770;9.148;2022-12-13T09:55:17;21.00;46.60
62589;DHT22;58504;48.770;9.148;2022-12-13T09:57:45;20.90;46.70
62589;DHT22;58504;48.770;9.148;2022-12-13T10:00:14;20.90;46.80
62589;DHT22;58504;48.770;9.148;2022-12-13T10:02:44;20.80;46.90
62589;DHT22;58504;48.770;9.148;2022-12-13T10:05:16;20.70;47.00
62589;DHT22;58504;48.770;9.148;2022-12-13T10:07:45;20.60;47.10
62589;DHT22;58504;48.770;9.148;2022-12-13T10:10:13;20.50;47.20
62589;DHT22;58504;48.770;9.148;2022-12-13T10:12:41;20.60;47.30
62589;DHT22;58504;48.770;9.148;2022-12-13T10:15:12;20.70;47.10
62589;DHT22;58504;48.770;9.148;2022-12-13T10:17:42;20.90;47.00
62589;DHT22;58504;48.770;9.148;2022-12-13T10:20:16;21.10;46.80
62589;DHT22;58504;48.770;9.148;2022-12-13T10:22:45;21.20;46.60
62589;DHT22;58504;48.770;9.148;2022-12-13T10:25:12;21.30;46.40
62589;DHT22;58504;48.770;9.148;2022-12-13T10:27:42;21.40;46.30
62589;DHT22;58504;48.770;9.148;2022-12-13T10:30:11;21.40;46.30
62589;DHT22;58504;48.770;9.148;2022-12-13T10:32:46;21.40;46.30
62589;DHT22;58504;48.770;9.148;2022-12-13T10:35:24;21.30;46.20
62589;DHT22;58504;48.770;9.148;2022-12-13T10:37:54;21.30;46.30
62589;DHT22;58504;48.770;9.148;2022-12-13T10:40:29;21.20;46.20
62589;DHT22;58504;48.770;9.148;2022-12-13T10:43:07;21.10;46.30
62589;DHT22;58504;48.770;9.148;2022-12-13T10:45:36;21.10;46.40
62589;DHT22;58504;48.770;9.148;2022-12-13T10:48:03;21.00;46.50
62589;DHT22;58504;48.770;9.148;2022-12-13T10:50:31;20.90;46.20
62589;DHT22;58504;48.770;9.148;2022-12-13T10:52:59;20.80;46.60
62589;DHT22;58504;48.770;9.148;2022-12-13T10:55:29;20.70;46.80
62589;DHT22;58504;48.770;9.148;2022-12-13T10:57:59;20.60;46.80
62589;DHT22;58504;48.770;9.148;2022-12-13T11:00:36;20.60;47.00
62589;DHT22;58504;48.770;9.148;2022-12-13T11:03:04;20.70;47.10
62589;DHT22;58504;48.770;9.148;2022-12-13T11:05:32;20.90;47.00
62589;DHT22;58504;48.770;9.148;2022-12-13T11:08:17;21.00;46.70
62589;DHT22;58504;48.770;9.148;2022-12-13T11:10:46;21.20;46.50
62589;DHT22;58504;48.770;9.148;2022-12-13T11:13:23;21.40;46.30
62589;DHT22;58504;48.770;9.148;2022-12-13T11:15:54;21.40;46.00
62589;DHT22;58504;48.770;9.148;2022-12-13T11:18:23;21.50;46.00
62589;DHT22;58504;48.770;9.148;2022-12-13T11:20:54;21.50;46.00
62589;DHT22;58504;48.770;9.148;2022-12-13T11:23:27;21.50;46.00
62589;DHT22;58504;48.770;9.148;2022-12-13T11:25:54;21.40;46.00
62589;DHT22;58504;48.770;9.148;2022-12-13T11:28:31;21.40;46.00
62589;DHT22;58504;48.770;9.148;2022-12-13T11:31:10;21.30;46.00
62589;DHT22;58504;48.770;9.148;2022-12-13T11:33:49;21.20;46.20
62589;DHT22;58504;48.770;9.148;2022-12-13T11:36:29;21.20;46.20
62589;DHT22;58504;48.770;9.148;2022-12-13T11:39:08;21.10;46.20
62589;DHT22;58504;48.770;9.148;2022-12-13T11:41:41;21.00;46.40
62589;DHT22;58504;48.770;9.148;2022-12-13T11:44:13;20.90;46.50
62589;DHT22;58504;48.770;9.148;2022-12-13T11:46:42;20.80;46.60
62589;DHT22;58504;48.770;9.148;2022-12-13T11:49:14;20.70;46.70
62589;DHT22;58504;48.770;9.148;2022-12-13T11:51:46;20.60;46.80
62589;DHT22;58504;48.770;9.148;2022-12-13T11:54:21;20.70;47.50
62589;DHT22;58504;48.770;9.148;2022-12-13T11:56:49;20.90;46.90
62589;DHT22;58504;48.770;9.148;2022-12-13T11:59:23;21.10;46.60
62589;DHT22;58504;48.770;9.148;2022-12-13T12:01:56;21.30;46.40
62589;DHT22;58504;48.770;9.148;2022-12-13T12:04:30;21.40;46.10
62589;DHT22;58504;48.770;9.148;2022-12-13T12:07:03;21.50;46.00
62589;DHT22;58504;48.770;9.148;2022-12-13T12:09:34;21.60;46.00
62589;DHT22;58504;48.770;9.148;2022-12-13T12:12:09;21.60;45.90
62589;DHT22;58504;48.770;9.148;2022-12-13T12:14:42;21.60;45.90
62589;DHT22;58504;48.770;9.148;2022-12-13T12:17:12;21.50;45.90
62589;DHT22;58504;48.770;9.148;2022-12-13T12:19:42;21.50;46.00
62589;DHT22;58504;48.770;9.148;2022-12-13T12:22:21;21.40;46.60
62589;DHT22;58504;48.770;9.148;2022-12-13T12:24:59;21.30;46.00
62589;DHT22;58504;48.770;9.148;2022-12-13T12:27:34;21.20;46.10
62589;DHT22;58504;48.770;9.148;2022-12-13T12:30:15;21.10;46.20
62589;DHT22;58504;48.770;9.148;2022-12-13T12:32:49;21.10;46.30
62589;DHT22;58504;48.770;9.148;2022-12-13T12:35:32;20.90;46.40
62589;DHT22;58504;48.770;9.148;2022-12-13T12:38:11;20.90;47.10
62589;DHT22;58504;48.770;9.148;2022-12-13T12:40:54;20.80;46.60
62589;DHT22;58504;48.770;9.148;2022-12-13T12:43:30;20.60;46.70
62589;DHT22;58504;48.770;9.148;2022-12-13T12:46:10;20.60;47.00
62589;DHT22;58504;48.770;9.148;2022-12-13T12:49:01;20.80;47.10
62589;DHT22;58504;48.770;9.148;2022-12-13T12:51:36;21.00;46.80
62589;DHT22;58504;48.770;9.148;2022-12-13T12:54:23;21.20;46.60
62589;DHT22;58504;48.770;9.148;2022-12-13T12:56:58;21.30;46.30
62589;DHT22;58504;48.770;9.148;2022-12-13T12:59:36;21.40;46.00
62589;DHT22;58504;48.770;9.148;2022-12-13T13:02:12;21.50;46.00
62589;DHT22;58504;48.770;9.148;2022-12-13T13:04:44;21.50;45.90
62589;DHT22;58504;48.770;9.148;2022-12-13T13:07:14;21.50;45.90
62589;DHT22;58504;48.770;9.148;2022-12-13T13:09:42;21.40;45.90
62589;DHT22;58504;48.770;9.148;2022-12-13T13:12:11;21.40;46.00
62589;DHT22;58504;48.770;9.148;2022-12-13T13:14:39;21.40;46.00
62589;DHT22;58504;48.770;9.148;2022-12-13T13:17:44;21.30;46.20
62589;DHT22;58504;48.770;9.148;2022-12-13T13:20:19;21.20;46.20
62589;DHT22;58504;48.770;9.148;2022-12-13T13:22:48;21.10;46.30
62589;DHT22;58504;48.770;9.148;2022-12-13T13:25:26;21.00;46.30
62589;DHT22;58504;48.770;9.148;2022-12-13T13:28:03;20.90;46.40
62589;DHT22;58504;48.770;9.148;2022-12-13T13:30:31;20.80;46.60
62589;DHT22;58504;48.770;9.148;2022-12-13T13:32:58;20.70;46.60
62589;DHT22;58504;48.770;9.148;2022-12-13T13:35:49;20.70;46.80
62589;DHT22;58504;48.770;9.148;2022-12-13T13:41:53;20.60;47.10
62589;DHT22;58504;48.770;9.148;2022-12-13T13:47:39;21.10;46.70
62589;DHT22;58504;48.770;9.148;2022-12-13T13:50:38;21.30;46.30
62589;DHT22;58504;48.770;9.148;2022-12-13T13:53:30;21.30;46.20
62589;DHT22;58504;48.770;9.148;2022-12-13T13:56:10;21.40;46.10
62589;DHT22;58504;48.770;9.148;2022-12-13T13:59:13;21.40;46.00
62589;DHT22;58504;48.770;9.148;2022-12-13T14:02:04;21.40;46.10
62589;DHT22;58504;48.770;9.148;2022-12-13T14:04:57;21.30;46.00
62589;DHT22;58504;48.770;9.148;2022-12-13T14:08:02;21.20;46.10
62589;DHT22;58504;48.770;9.148;2022-12-13T14:10:49;21.20;46.30
62589;DHT22;58504;48.770;9.148;2022-12-13T14:19:45;20.90;46.60
62589;DHT22;58504;48.770;9.148;2022-12-13T14:22:27;20.70;46.60
62589;DHT22;58504;48.770;9.148;2022-12-13T14:25:19;20.70;46.90
62589;DHT22;58504;48.770;9.148;2022-12-13T14:27:57;20.50;47.00
62589;DHT22;58504;48.770;9.148;2022-12-13T14:30:26;20.50;47.20
62589;DHT22;58504;48.770;9.148;2022-12-13T14:32:53;20.50;47.30
62589;DHT22;58504;48.770;9.148;2022-12-13T14:35:23;20.60;47.20
62589;DHT22;58504;48.770;9.148;2022-12-13T14:37:58;20.80;47.00
62589;DHT22;58504;48.770;9.148;2022-12-13T14:40:29;21.00;46.80
62589;DHT22;58504;48.770;9.148;2022-12-13T14:42:56;21.10;46.50
62589;DHT22;58504;48.770;9.148;2022-12-13T14:45:25;21.20;46.40
62589;DHT22;58504;48.770;9.148;2022-12-13T14:47:55;21.20;46.30
62589;DHT22;58504;48.770;9.148;2022-12-13T14:50:25;21.30;46.20
62589;DHT22;58504;48.770;9.148;2022-12-13T14:52:52;21.20;46.10
62589;DHT22;58504;48.770;9.148;2022-12-13T14:55:25;21.20;46.20
62589;DHT22;58504;48.770;9.148;2022-12-13T14:57:54;21.10;46.20
62589;DHT22;58504;48.770;9.148;2022-12-13T15:00:24;21.10;46.30
62589;DHT22;58504;48.770;9.148;2022-12-13T15:02:53;21.00;46.40
62589;DHT22;58504;48.770;9.148;2022-12-13T15:05:25;20.90;46.40
62589;DHT22;58504;48.770;9.148;2022-12-13T15:07:52;20.80;46.50
62589;DHT22;58504;48.770;9.148;2022-12-13T15:10:27;20.70;46.50
62589;DHT22;58504;48.770;9.148;2022-12-13T15:12:56;20.60;46.80
62589;DHT22;58504;48.770;9.148;2022-12-13T15:15:26;20.50;46.90
62589;DHT22;58504;48.770;9.148;2022-12-13T15:18:05;20.40;47.00
62589;DHT22;58504;48.770;9.148;2022-12-13T15:20:38;20.30;47.10
62589;DHT22;58504;48.770;9.148;2022-12-13T15:23:19;20.30;46.90
62589;DHT22;58504;48.770;9.148;2022-12-13T15:25:49;20.40;47.10
62589;DHT22;58504;48.770;9.148;2022-12-13T15:28:17;20.60;47.00
62589;DHT22;58504;48.770;9.148;2022-12-13T15:30:44;20.80;46.90
62589;DHT22;58504;48.770;9.148;2022-12-13T15:33:17;21.00;46.70
62589;DHT22;58504;48.770;9.148;2022-12-13T15:35:47;21.00;46.50
62589;DHT22;58504;48.770;9.148;2022-12-13T15:38:18;21.00;46.40
62589;DHT22;58504;48.770;9.148;2022-12-13T15:40:46;21.10;46.40
62589;DHT22;58504;48.770;9.148;2022-12-13T15:43:15;21.10;46.40
62589;DHT22;58504;48.770;9.148;2022-12-13T15:45:44;21.10;46.40
62589;DHT22;58504;48.770;9.148;2022-12-13T15:48:22;21.00;46.30
62589;DHT22;58504;48.770;9.148;2022-12-13T15:51:04;20.90;46.30
62589;DHT22;58504;48.770;9.148;2022-12-13T15:53:31;20.90;46.40
62589;DHT22;58504;48.770;9.148;2022-12-13T15:55:59;20.80;46.50
62589;DHT22;58504;48.770;9.148;2022-12-13T15:58:28;20.70;46.60
62589;DHT22;58504;48.770;9.148;2022-12-13T16:00:56;20.60;46.40
62589;DHT22;58504;48.770;9.148;2022-12-13T16:03:30;20.50;46.70
62589;DHT22;58504;48.770;9.148;2022-12-13T16:06:03;20.40;47.00
62589;DHT22;58504;48.770;9.148;2022-12-13T16:08:32;20.30;47.10
62589;DHT22;58504;48.770;9.148;2022-12-13T16:11:01;20.30;47.30
62589;DHT22;58504;48.770;9.148;2022-12-13T16:13:29;20.40;47.20